Time,TemperatureF,DewpointF,PressureIn,WindDirection,WindDirectionDegrees,WindSpeedMPH,WindSpeedGustMPH,Humidity,HourlyPrecipIn,Conditions,Clouds,dailyrainin,SolarRadiationWatts/m^2,SoftwareType,DateUTC
2013-12-13 00:03:00,33.1,1.1,30.21,WNW,283,6.0,15.0,25,0.00,,,0.00,0,WeatherCatV1.23B16,2013-12-13 08:03:00,
2013-12-13 00:08:00,32.9,1.0,30.21,WNW,288,7.0,14.0,25,0.00,,,0.00,0,WeatherCatV1.23B16,2013-12-13 08:08:00,
2013-12-13 00:13:00,33.1,1.1,30.21,NW,311,16.0,16.0,25,0.00,,,0.00,0,WeatherCatV1.23B16,2013-12-13 08:13:00,
2013-12-13 00:18:00,33.1,1.1,30.17,WNW,288,4.0,9.0,25,0.00,,,0.00,0,WeatherCatV1.23B16,2013-12-13 08:18:00,
2013-12-13 00:23:00,32.9,1.0,30.17,WNW,301,7.0,9.0,25,0.00,,,0.00,0,WeatherCatV1.23B16,2013-12-13 08:23:00,
2013-12-13 00:28:00,32.9,1.0,30.17,WNW,288,5.0,7.0,25,0.00,,,0.00,0,WeatherCatV1.23B16,2013-12-13 08:28:00,
2013-12-13 00:33:00,32.8,0.0,30.17,West,271,10.0,14.0,24,0.00,,,0.00,0,WeatherCatV1.23B16,2013-12-13 08:33:00,
2013-12-13 00:38:00,32.8,0.0,30.17,WNW,283,6.0,15.0,24,0.00,,,0.00,0,WeatherCatV1.23B16,2013-12-13 08:38:00,
2013-12-13 00:43:00,32.7,-1.0,30.17,SW,236,2.0,13.0,23,0.00,,,0.00,0,WeatherCatV1.23B16,2013-12-13 08:43:00,
2013-12-13 00:48:00,32.7,-1.0,30.17,West,265,3.0,9.0,23,0.00,,,0.00,0,WeatherCatV1.23B16,2013-12-13 08:48:00,
2013-12-13 00:53:00,32.8,-0.9,30.17,West,260,5.0,12.0,23,0.00,,,0.00,0,WeatherCatV1.23B16,2013-12-13 08:53:00,
2013-12-13 00:58:00,32.8,-0.9,30.17,WNW,283,3.0,7.0,23,0.00,,,0.00,0,WeatherCatV1.23B16,2013-12-13 08:58:00,
2013-12-13 01:03:00,32.7,-0.1,30.17,WNW,297,6.0,7.0,24,0.00,,,0.00,0,WeatherCatV1.23B16,2013-12-13 09:03:00,
2013-12-13 01:08:00,32.7,-1.0,30.17,West,278,6.0,11.0,23,0.00,,,0.00,0,WeatherCatV1.23B16,2013-12-13 09:08:00,
2013-12-13 01:13:00,32.7,-1.0,30.17,West,268,5.0,9.0,23,0.00,,,0.00,0,WeatherCatV1.23B16,2013-12-13 09:13:00,
2013-12-13 01:18:00,32.8,-1.8,30.15,WNW,283,3.0,12.0,22,0.00,,,0.00,0,WeatherCatV1.23B16,2013-12-13 09:18:00,
2013-12-13 01:23:00,32.8,-0.9,30.15,NW,307,3.0,7.0,23,0.00,,,0.00,0,WeatherCatV1.23B16,2013-12-13 09:23:00,
2013-12-13 01:28:00,32.7,-1.0,30.15,WNW,293,6.0,8.0,23,0.00,,,0.00,0,WeatherCatV1.23B16,2013-12-13 09:28:00,
2013-12-13 01:33:00,32.4,-1.2,30.15,West,278,9.0,17.0,23,0.00,,,0.00,0,WeatherCatV1.23B16,2013-12-13 09:33:00,
2013-12-13 01:38:00,32.2,-1.4,30.15,WNW,301,6.0,13.0,23,0.00,,,0.00,0,WeatherCatV1.23B16,2013-12-13 09:38:00,
2013-12-13 01:43:00,32.1,-1.5,30.15,NW,311,4.0,10.0,23,0.00,,,0.00,0,WeatherCatV1.23B16,2013-12-13 09:43:00,
2013-12-13 01:48:00,31.9,-1.6,30.18,WNW,301,6.0,9.0,23,0.00,,,0.00,0,WeatherCatV1.23B16,2013-12-13 09:48:00,
2013-12-13 01:53:00,31.9,-0.7,30.18,NNW,329,4.0,11.0,24,0.00,,,0.00,0,WeatherCatV1.23B16,2013-12-13 09:53:00,
2013-12-13 01:58:00,31.8,-0.8,30.18,NW,310,0.0,8.0,24,0.00,,,0.00,0,WeatherCatV1.23B16,2013-12-13 09:58:00,
2013-12-13 02:03:00,31.6,-1.0,30.18,West,279,6.0,6.0,24,0.00,,,0.00,0,WeatherCatV1.23B16,2013-12-13 10:03:00,
2013-12-13 02:08:00,31.6,-0.1,30.18,NNW,340,2.0,2.0,25,0.00,,,0.00,0,WeatherCatV1.23B16,2013-12-13 10:08:00,
2013-12-13 02:13:00,31.5,-1.1,30.18,NNW,341,0.0,3.0,24,0.00,,,0.00,0,WeatherCatV1.23B16,2013-12-13 10:13:00,
2013-12-13 02:18:00,31.3,-1.2,30.18,NNW,341,1.0,3.0,24,0.00,,,0.00,0,WeatherCatV1.23B16,2013-12-13 10:18:00,
2013-12-13 02:23:00,31.2,-0.5,30.18,NNW,340,2.0,2.0,25,0.00,,,0.00,0,WeatherCatV1.23B16,2013-12-13 10:23:00,
2013-12-13 02:28:00,31.0,-0.6,30.18,NNW,339,1.0,3.0,25,0.00,,,0.00,0,WeatherCatV1.23B16,2013-12-13 10:28:00,
2013-12-13 02:33:00,31.0,-0.6,30.20,NNW,339,0.0,0.0,25,0.00,,,0.00,0,WeatherCatV1.23B16,2013-12-13 10:33:00,
2013-12-13 02:38:00,31.0,-0.6,30.20,NNW,339,2.0,2.0,25,0.00,,,0.00,0,WeatherCatV1.23B16,2013-12-13 10:38:00,
2013-12-13 02:43:00,31.3,-1.2,30.20,North,352,3.0,7.0,24,0.00,,,0.00,0,WeatherCatV1.23B16,2013-12-13 10:43:00,
2013-12-13 02:48:00,31.3,-1.2,30.20,NNW,347,2.0,4.0,24,0.00,,,0.00,0,WeatherCatV1.23B16,2013-12-13 10:48:00,
2013-12-13 02:53:00,31.3,0.4,30.20,NNW,347,0.0,0.0,26,0.00,,,0.00,0,WeatherCatV1.23B16,2013-12-13 10:53:00,
2013-12-13 02:58:00,31.2,1.2,30.20,NNW,343,0.0,0.0,27,0.00,,,0.00,0,WeatherCatV1.23B16,2013-12-13 10:58:00,
2013-12-13 03:03:00,31.0,-1.5,30.20,NNW,345,0.0,5.0,24,0.00,,,0.00,0,WeatherCatV1.23B16,2013-12-13 11:03:00,
2013-12-13 03:08:00,30.9,-1.6,30.20,NW,318,5.0,7.0,24,0.00,,,0.00,0,WeatherCatV1.23B16,2013-12-13 11:08:00,
2013-12-13 03:13:00,31.0,-1.5,30.20,NW,308,3.0,6.0,24,0.00,,,0.00,0,WeatherCatV1.23B16,2013-12-13 11:13:00,
2013-12-13 03:18:00,31.3,-1.2,30.21,WNW,297,5.0,7.0,24,0.00,,,0.00,0,WeatherCatV1.23B16,2013-12-13 11:18:00,
2013-12-13 03:23:00,31.5,-2.0,30.21,NW,309,9.0,11.0,23,0.00,,,0.00,0,WeatherCatV1.23B16,2013-12-13 11:23:00,
2013-12-13 03:28:00,31.6,-1.9,30.21,NW,306,7.0,10.0,23,0.00,,,0.00,0,WeatherCatV1.23B16,2013-12-13 11:28:00,
2013-12-13 03:33:00,31.8,-1.7,30.20,WNW,299,7.0,11.0,23,0.00,,,0.00,0,WeatherCatV1.23B16,2013-12-13 11:33:00,
2013-12-13 03:38:00,31.6,-1.0,30.20,WNW,293,6.0,11.0,24,0.00,,,0.00,0,WeatherCatV1.23B16,2013-12-13 11:38:00,
2013-12-13 03:43:00,31.5,-1.1,30.20,NW,311,7.0,13.0,24,0.00,,,0.00,0,WeatherCatV1.23B16,2013-12-13 11:43:00,
2013-12-13 03:48:00,31.2,-1.3,30.20,WNW,298,5.0,12.0,24,0.00,,,0.00,0,WeatherCatV1.23B16,2013-12-13 11:48:00,
2013-12-13 03:53:00,30.9,-1.6,30.20,WNW,301,6.0,10.0,24,0.00,,,0.00,0,WeatherCatV1.23B16,2013-12-13 11:53:00,
2013-12-13 03:58:00,30.7,-0.9,30.20,WNW,293,10.0,11.0,25,0.00,,,0.00,0,WeatherCatV1.23B16,2013-12-13 11:58:00,
2013-12-13 04:03:00,30.7,-0.9,30.21,WNW,293,8.0,11.0,25,0.00,,,0.00,0,WeatherCatV1.23B16,2013-12-13 12:03:00,
2013-12-13 04:08:00,30.6,-0.2,30.21,WNW,293,5.0,7.0,26,0.00,,,0.00,0,WeatherCatV1.23B16,2013-12-13 12:08:00,
2013-12-13 04:13:00,30.3,-0.4,30.21,WNW,301,7.0,11.0,26,0.00,,,0.00,0,WeatherCatV1.23B16,2013-12-13 12:13:00,
2013-12-13 04:18:00,30.0,0.1,30.25,WNW,293,7.0,12.0,27,0.00,,,0.00,0,WeatherCatV1.23B16,2013-12-13 12:18:00,
2013-12-13 04:23:00,29.7,0.6,30.25,WNW,297,5.0,7.0,28,0.00,,,0.00,0,WeatherCatV1.23B16,2013-12-13 12:23:00,
2013-12-13 04:28:00,29.3,1.8,30.25,West,270,10.0,11.0,30,0.00,,,0.00,0,WeatherCatV1.23B16,2013-12-13 12:28:00,
2013-12-13 04:33:00,28.8,2.0,30.25,NW,312,7.0,9.0,31,0.00,,,0.00,0,WeatherCatV1.23B16,2013-12-13 12:33:00,
2013-12-13 04:36:00,28.5,2.4,30.25,WNW,293,6.0,10.0,32,0.00,,,0.00,0,WeatherCatV1.23B16,2013-12-13 12:36:00,
2013-12-13 04:41:00,28.2,2.2,30.25,WNW,303,11.0,13.0,32,0.00,,,0.00,0,WeatherCatV1.23B16,2013-12-13 12:41:00,
2013-12-13 04:46:00,28.2,2.8,30.27,NW,310,13.0,13.0,33,0.00,,,0.00,0,WeatherCatV1.23B16,2013-12-13 12:46:00,
2013-12-13 04:51:00,28.7,1.2,30.27,WNW,288,10.0,13.0,30,0.00,,,0.00,0,WeatherCatV1.23B16,2013-12-13 12:51:00,
2013-12-13 04:56:00,28.8,1.3,30.27,WNW,293,6.0,12.0,30,0.00,,,0.00,0,WeatherCatV1.23B16,2013-12-13 12:56:00,
2013-12-13 05:01:00,28.8,0.6,30.25,WNW,293,9.0,12.0,29,0.00,,,0.00,0,WeatherCatV1.23B16,2013-12-13 13:01:00,
2013-12-13 05:06:00,29.0,0.0,30.25,WNW,297,5.0,7.0,28,0.00,,,0.00,0,WeatherCatV1.23B16,2013-12-13 13:06:00,
2013-12-13 05:11:00,29.1,0.1,30.25,NW,305,6.0,10.0,28,0.00,,,0.00,0,WeatherCatV1.23B16,2013-12-13 13:11:00,
2013-12-13 05:16:00,29.3,0.3,30.25,WNW,297,6.0,11.0,28,0.00,,,0.00,0,WeatherCatV1.23B16,2013-12-13 13:16:00,
2013-12-13 05:21:00,29.7,-0.1,30.25,WNW,303,6.0,9.0,27,0.00,,,0.00,0,WeatherCatV1.23B16,2013-12-13 13:21:00,
2013-12-13 05:26:00,29.8,-0.1,30.25,WNW,299,6.0,7.0,27,0.00,,,0.00,0,WeatherCatV1.23B16,2013-12-13 13:26:00,
2013-12-13 05:31:00,29.8,-0.9,30.26,WNW,293,7.0,10.0,26,0.00,,,0.00,0,WeatherCatV1.23B16,2013-12-13 13:31:00,
2013-12-13 05:36:00,30.0,0.1,30.26,WNW,293,5.0,6.0,27,0.00,,,0.00,0,WeatherCatV1.23B16,2013-12-13 13:36:00,
2013-12-13 05:41:00,29.7,-0.1,30.26,NW,314,6.0,9.0,27,0.00,,,0.00,0,WeatherCatV1.23B16,2013-12-13 13:41:00,
2013-12-13 05:46:00,29.5,-0.3,30.27,WNW,293,7.0,10.0,27,0.00,,,0.00,0,WeatherCatV1.23B16,2013-12-13 13:46:00,
2013-12-13 05:51:00,29.5,-0.3,30.27,WNW,299,5.0,6.0,27,0.00,,,0.00,0,WeatherCatV1.23B16,2013-12-13 13:51:00,
2013-12-13 05:56:00,29.4,-0.4,30.27,WNW,299,6.0,7.0,27,0.00,,,0.00,0,WeatherCatV1.23B16,2013-12-13 13:56:00,
2013-12-13 06:01:00,29.4,0.4,30.27,WNW,293,5.0,9.0,28,0.00,,,0.00,0,WeatherCatV1.23B16,2013-12-13 14:01:00,
2013-12-13 06:06:00,29.3,0.3,30.27,WNW,303,4.0,8.0,28,0.00,,,0.00,0,WeatherCatV1.23B16,2013-12-13 14:06:00,
2013-12-13 06:11:00,29.3,0.3,30.27,NW,304,2.0,4.0,28,0.00,,,0.00,0,WeatherCatV1.23B16,2013-12-13 14:11:00,
2013-12-13 06:16:00,29.3,0.3,30.29,WNW,297,2.0,6.0,28,0.00,,,0.00,0,WeatherCatV1.23B16,2013-12-13 14:16:00,
2013-12-13 06:21:00,29.1,0.1,30.29,WNW,298,0.0,3.0,28,0.00,,,0.00,0,WeatherCatV1.23B16,2013-12-13 14:21:00,
2013-12-13 06:26:00,29.1,0.1,30.29,WNW,298,0.0,4.0,28,0.00,,,0.00,0,WeatherCatV1.23B16,2013-12-13 14:26:00,
2013-12-13 06:31:00,29.1,0.1,30.30,WNW,298,1.0,2.0,28,0.00,,,0.00,0,WeatherCatV1.23B16,2013-12-13 14:31:00,
2013-12-13 06:36:00,29.1,-0.7,30.30,WNW,298,0.0,0.0,27,0.00,,,0.00,0,WeatherCatV1.23B16,2013-12-13 14:36:00,
2013-12-13 06:41:00,29.0,0.0,30.30,WNW,298,0.0,3.0,28,0.00,,,0.00,0,WeatherCatV1.23B16,2013-12-13 14:41:00,
2013-12-13 06:46:00,29.0,0.0,30.30,NW,324,3.0,4.0,28,0.00,,,0.00,0,WeatherCatV1.23B16,2013-12-13 14:46:00,
2013-12-13 06:51:00,29.1,0.9,30.30,NW,325,3.0,4.0,29,0.00,,,0.00,0,WeatherCatV1.23B16,2013-12-13 14:51:00,
2013-12-13 06:56:00,29.1,0.9,30.30,NW,325,2.0,2.0,29,0.00,,,0.00,0,WeatherCatV1.23B16,2013-12-13 14:56:00,
2013-12-13 07:01:00,29.1,0.1,30.31,NW,325,2.0,3.0,28,0.00,,,0.00,0,WeatherCatV1.23B16,2013-12-13 15:01:00,
2013-12-13 07:06:00,29.3,0.3,30.31,NW,326,1.0,4.0,28,0.00,,,0.00,0,WeatherCatV1.23B16,2013-12-13 15:06:00,
2013-12-13 07:11:00,29.5,-0.3,30.31,NW,326,1.0,2.0,27,0.00,,,0.00,5,WeatherCatV1.23B16,2013-12-13 15:11:00,
2013-12-13 07:16:00,29.5,0.5,30.30,NW,326,0.0,2.0,28,0.00,,,0.00,7,WeatherCatV1.23B16,2013-12-13 15:16:00,
2013-12-13 07:21:00,29.4,1.1,30.30,NW,326,1.0,1.0,29,0.00,,,0.00,7,WeatherCatV1.23B16,2013-12-13 15:21:00,
2013-12-13 07:26:00,29.3,0.3,30.30,NW,326,0.0,0.0,28,0.00,,,0.00,9,WeatherCatV1.23B16,2013-12-13 15:26:00,
2013-12-13 07:31:00,29.3,0.3,30.30,NW,326,0.0,0.0,28,0.00,,,0.00,11,WeatherCatV1.23B16,2013-12-13 15:31:00,
2013-12-13 07:36:00,29.0,0.8,30.30,NW,326,0.0,0.0,29,0.00,,,0.00,12,WeatherCatV1.23B16,2013-12-13 15:36:00,
2013-12-13 07:41:00,29.0,0.8,30.30,NW,326,0.0,0.0,29,0.00,,,0.00,14,WeatherCatV1.23B16,2013-12-13 15:41:00,
2013-12-13 07:46:00,29.0,0.8,30.31,NW,325,0.0,0.0,29,0.00,,,0.00,33,WeatherCatV1.23B16,2013-12-13 15:46:00,
2013-12-13 07:51:00,29.1,1.6,30.31,NW,325,0.0,0.0,30,0.00,,,0.00,25,WeatherCatV1.23B16,2013-12-13 15:51:00,
2013-12-13 07:56:00,29.3,1.8,30.31,NW,325,0.0,2.0,30,0.00,,,0.00,54,WeatherCatV1.23B16,2013-12-13 15:56:00,
2013-12-13 08:01:00,29.5,2.6,30.31,NW,325,1.0,1.0,31,0.00,,,0.00,30,WeatherCatV1.23B16,2013-12-13 16:01:00,
2013-12-13 08:06:00,29.8,2.2,30.31,WNW,293,2.0,3.0,30,0.00,,,0.00,23,WeatherCatV1.23B16,2013-12-13 16:06:00,
2013-12-13 08:11:00,30.1,2.5,30.31,West,266,0.0,3.0,30,0.00,,,0.00,74,WeatherCatV1.23B16,2013-12-13 16:11:00,
2013-12-13 08:16:00,30.4,3.4,30.33,West,266,0.0,0.0,31,0.00,,,0.00,58,WeatherCatV1.23B16,2013-12-13 16:16:00,
2013-12-13 08:21:00,30.7,2.2,30.33,WSW,257,1.0,2.0,29,0.00,,,0.00,32,WeatherCatV1.23B16,2013-12-13 16:21:00,
2013-12-13 08:26:00,31.0,2.5,30.33,WSW,257,0.0,0.0,29,0.00,,,0.00,35,WeatherCatV1.23B16,2013-12-13 16:26:00,
2013-12-13 08:31:00,31.3,5.6,30.31,ESE,122,0.0,4.0,33,0.00,,,0.00,86,WeatherCatV1.23B16,2013-12-13 16:31:00,
2013-12-13 08:36:00,31.5,5.1,30.31,ESE,114,3.0,5.0,32,0.00,,,0.00,30,WeatherCatV1.23B16,2013-12-13 16:36:00,
2013-12-13 08:41:00,31.5,6.4,30.31,East,100,2.0,3.0,34,0.00,,,0.00,178,WeatherCatV1.23B16,2013-12-13 16:41:00,
2013-12-13 08:46:00,31.5,5.8,30.33,ESE,103,1.0,4.0,33,0.00,,,0.00,190,WeatherCatV1.23B16,2013-12-13 16:46:00,
2013-12-13 08:51:00,31.8,6.0,30.33,ESE,104,2.0,4.0,33,0.00,,,0.00,200,WeatherCatV1.23B16,2013-12-13 16:51:00,
2013-12-13 08:56:00,32.1,4.9,30.33,ESE,107,3.0,5.0,31,0.00,,,0.00,213,WeatherCatV1.23B16,2013-12-13 16:56:00,
2013-12-13 09:01:00,32.4,5.2,30.33,ESE,107,2.0,6.0,31,0.00,,,0.00,225,WeatherCatV1.23B16,2013-12-13 17:01:00,
2013-12-13 09:06:00,32.8,5.5,30.33,ESE,106,1.0,5.0,31,0.00,,,0.00,236,WeatherCatV1.23B16,2013-12-13 17:06:00,
2013-12-13 09:11:00,33.2,5.9,30.33,ESE,112,0.0,5.0,31,0.00,,,0.00,248,WeatherCatV1.23B16,2013-12-13 17:11:00,
2013-12-13 09:16:00,33.7,7.0,30.30,SE,130,6.0,6.0,32,0.00,,,0.00,260,WeatherCatV1.23B16,2013-12-13 17:16:00,
2013-12-13 09:21:00,34.3,5.4,30.30,East,97,1.0,6.0,29,0.00,,,0.00,272,WeatherCatV1.23B16,2013-12-13 17:21:00,
2013-12-13 09:26:00,34.7,5.0,30.30,ESE,112,3.0,6.0,28,0.00,,,0.00,285,WeatherCatV1.23B16,2013-12-13 17:26:00,
2013-12-13 09:31:00,35.2,6.9,30.28,SE,134,4.0,5.0,30,0.00,,,0.00,295,WeatherCatV1.23B16,2013-12-13 17:31:00,
2013-12-13 09:36:00,35.8,5.9,30.28,ESE,116,1.0,7.0,28,0.00,,,0.00,306,WeatherCatV1.23B16,2013-12-13 17:36:00,
2013-12-13 09:41:00,36.0,6.9,30.28,ESE,118,1.0,2.0,29,0.00,,,0.00,316,WeatherCatV1.23B16,2013-12-13 17:41:00,
2013-12-13 09:46:00,36.2,8.5,30.28,ESE,118,1.0,3.0,31,0.00,,,0.00,327,WeatherCatV1.23B16,2013-12-13 17:46:00,
2013-12-13 09:51:00,36.8,9.7,30.28,SE,143,3.0,6.0,32,0.00,,,0.00,338,WeatherCatV1.23B16,2013-12-13 17:51:00,
2013-12-13 09:56:00,37.2,8.7,30.28,SE,141,2.0,7.0,30,0.00,,,0.00,348,WeatherCatV1.23B16,2013-12-13 17:56:00,
2013-12-13 10:01:00,37.5,10.4,30.27,ESE,103,3.0,5.0,32,0.00,,,0.00,357,WeatherCatV1.23B16,2013-12-13 18:01:00,
2013-12-13 10:06:00,37.3,10.9,30.27,ESE,115,5.0,10.0,33,0.00,,,0.00,366,WeatherCatV1.23B16,2013-12-13 18:06:00,
2013-12-13 10:11:00,37.3,10.2,30.27,ESE,114,5.0,5.0,32,0.00,,,0.00,374,WeatherCatV1.23B16,2013-12-13 18:11:00,
2013-12-13 10:16:00,37.6,8.2,30.30,SE,141,3.0,6.0,29,0.00,,,0.00,383,WeatherCatV1.23B16,2013-12-13 18:16:00,
2013-12-13 10:21:00,37.9,10.7,30.30,East,93,0.0,5.0,32,0.00,,,0.00,392,WeatherCatV1.23B16,2013-12-13 18:21:00,
2013-12-13 10:26:00,37.9,12.1,30.30,ESE,104,4.0,4.0,34,0.00,,,0.00,399,WeatherCatV1.23B16,2013-12-13 18:26:00,
2013-12-13 10:31:00,38.3,11.1,30.30,ESE,105,0.0,3.0,32,0.00,,,0.00,408,WeatherCatV1.23B16,2013-12-13 18:31:00,
2013-12-13 10:36:00,38.5,9.0,30.30,SE,145,5.0,6.0,29,0.00,,,0.00,415,WeatherCatV1.23B16,2013-12-13 18:36:00,
2013-12-13 10:41:00,38.8,11.5,30.30,ESE,105,5.0,6.0,32,0.00,,,0.00,422,WeatherCatV1.23B16,2013-12-13 18:41:00,
2013-12-13 10:46:00,39.2,10.4,30.30,SSE,149,1.0,7.0,30,0.00,,,0.00,427,WeatherCatV1.23B16,2013-12-13 18:46:00,
2013-12-13 10:52:00,39.6,13.6,30.30,ESE,112,3.0,7.0,34,0.00,,,0.00,436,WeatherCatV1.23B16,2013-12-13 18:52:00,
2013-12-13 10:57:00,39.6,12.2,30.30,SSE,150,4.0,6.0,32,0.00,,,0.00,441,WeatherCatV1.23B16,2013-12-13 18:57:00,
2013-12-13 11:02:00,39.8,16.9,30.30,ESE,120,0.0,2.0,39,0.00,,,0.00,446,WeatherCatV1.23B16,2013-12-13 19:02:00,
2013-12-13 11:07:00,39.9,13.2,30.30,ESE,110,5.0,6.0,33,0.00,,,0.00,452,WeatherCatV1.23B16,2013-12-13 19:07:00,
2013-12-13 11:12:00,39.9,13.2,30.30,ESE,116,5.0,5.0,33,0.00,,,0.00,457,WeatherCatV1.23B16,2013-12-13 19:12:00,
2013-12-13 11:17:00,39.8,13.1,30.30,SSE,153,3.0,8.0,33,0.00,,,0.00,461,WeatherCatV1.23B16,2013-12-13 19:17:00,
2013-12-13 11:22:00,39.5,14.1,30.30,SSE,163,7.0,11.0,35,0.00,,,0.00,464,WeatherCatV1.23B16,2013-12-13 19:22:00,
2013-12-13 11:27:00,39.5,14.1,30.30,SE,137,9.0,9.0,35,0.00,,,0.00,466,WeatherCatV1.23B16,2013-12-13 19:27:00,
2013-12-13 11:32:00,38.9,15.5,30.29,ESE,107,2.0,9.0,38,0.00,,,0.00,469,WeatherCatV1.23B16,2013-12-13 19:32:00,
2013-12-13 11:37:00,38.8,13.5,30.29,SSE,155,2.0,8.0,35,0.00,,,0.00,471,WeatherCatV1.23B16,2013-12-13 19:37:00,
2013-12-13 11:42:00,38.8,10.8,30.29,SSE,160,6.0,12.0,31,0.00,,,0.00,475,WeatherCatV1.23B16,2013-12-13 19:42:00,
2013-12-13 11:47:00,38.9,12.3,30.28,ESE,123,1.0,9.0,33,0.00,,,0.00,476,WeatherCatV1.23B16,2013-12-13 19:47:00,
2013-12-13 11:52:00,38.6,10.6,30.28,SE,139,5.0,6.0,31,0.00,,,0.00,478,WeatherCatV1.23B16,2013-12-13 19:52:00,
2013-12-13 11:57:00,38.6,8.4,30.28,SE,142,6.0,11.0,28,0.00,,,0.00,478,WeatherCatV1.23B16,2013-12-13 19:57:00,
2013-12-13 12:02:00,38.6,9.9,30.28,SE,124,7.0,7.0,30,0.00,,,0.00,480,WeatherCatV1.23B16,2013-12-13 20:02:00,
2013-12-13 12:07:00,38.5,9.0,30.28,SE,128,4.0,6.0,29,0.00,,,0.00,480,WeatherCatV1.23B16,2013-12-13 20:07:00,
2013-12-13 12:12:00,38.6,7.5,30.28,ESE,116,5.0,6.0,27,0.00,,,0.00,480,WeatherCatV1.23B16,2013-12-13 20:12:00,
2013-12-13 12:17:00,38.5,5.8,30.28,ESE,122,6.0,12.0,25,0.00,,,0.00,480,WeatherCatV1.23B16,2013-12-13 20:17:00,
2013-12-13 12:22:00,38.3,6.5,30.28,SE,141,3.0,11.0,26,0.00,,,0.00,478,WeatherCatV1.23B16,2013-12-13 20:22:00,
2013-12-13 12:27:00,38.0,6.2,30.28,SSE,149,9.0,12.0,26,0.00,,,0.00,476,WeatherCatV1.23B16,2013-12-13 20:27:00,
2013-12-13 12:32:00,38.0,7.8,30.30,East,96,5.0,9.0,28,0.00,,,0.00,475,WeatherCatV1.23B16,2013-12-13 20:32:00,
2013-12-13 12:37:00,37.8,6.8,30.30,ESE,103,5.0,6.0,27,0.00,,,0.00,473,WeatherCatV1.23B16,2013-12-13 20:37:00,
2013-12-13 12:42:00,37.3,7.2,30.30,SSE,153,9.0,12.0,28,0.00,,,0.00,469,WeatherCatV1.23B16,2013-12-13 20:42:00,
2013-12-13 12:47:00,37.5,6.6,30.30,ESE,110,3.0,7.0,27,0.00,,,0.00,466,WeatherCatV1.23B16,2013-12-13 20:47:00,
2013-12-13 12:52:00,37.5,6.6,30.30,SE,137,1.0,12.0,27,0.00,,,0.00,464,WeatherCatV1.23B16,2013-12-13 20:52:00,
2013-12-13 12:57:00,37.8,8.4,30.30,ESE,103,2.0,11.0,29,0.00,,,0.00,461,WeatherCatV1.23B16,2013-12-13 20:57:00,
2013-12-13 13:02:00,37.6,7.5,30.30,SE,127,5.0,11.0,28,0.00,,,0.00,455,WeatherCatV1.23B16,2013-12-13 21:02:00,
2013-12-13 13:07:00,37.6,7.5,30.30,SE,145,6.0,11.0,28,0.00,,,0.00,450,WeatherCatV1.23B16,2013-12-13 21:07:00,
2013-12-13 13:12:00,37.6,7.5,30.30,SSE,162,11.0,11.0,28,0.00,,,0.00,446,WeatherCatV1.23B16,2013-12-13 21:12:00,
2013-12-13 13:17:00,37.6,7.5,30.30,SE,133,2.0,13.0,28,0.00,,,0.00,441,WeatherCatV1.23B16,2013-12-13 21:17:00,
2013-12-13 13:22:00,37.5,7.4,30.30,SE,145,6.0,10.0,28,0.00,,,0.00,434,WeatherCatV1.23B16,2013-12-13 21:22:00,
2013-12-13 13:27:00,37.3,7.2,30.30,East,100,2.0,12.0,28,0.00,,,0.00,429,WeatherCatV1.23B16,2013-12-13 21:27:00,
2013-12-13 13:32:00,37.2,6.3,30.32,ESE,111,8.0,11.0,27,0.00,,,0.00,422,WeatherCatV1.23B16,2013-12-13 21:32:00,
2013-12-13 13:37:00,37.0,7.0,30.32,SSE,166,7.0,10.0,28,0.00,,,0.00,415,WeatherCatV1.23B16,2013-12-13 21:37:00,
2013-12-13 13:42:00,36.8,6.8,30.32,SE,131,8.0,12.0,28,0.00,,,0.00,410,WeatherCatV1.23B16,2013-12-13 21:42:00,
2013-12-13 13:47:00,36.2,8.5,30.32,ESE,118,6.0,10.0,31,0.00,,,0.00,401,WeatherCatV1.23B16,2013-12-13 21:47:00,
2013-12-13 13:52:00,36.0,7.6,30.32,ESE,117,2.0,11.0,30,0.00,,,0.00,394,WeatherCatV1.23B16,2013-12-13 21:52:00,
2013-12-13 13:57:00,36.0,7.6,30.32,ESE,113,4.0,10.0,30,0.00,,,0.00,385,WeatherCatV1.23B16,2013-12-13 21:57:00,
2013-12-13 14:02:00,35.9,8.2,30.32,SE,133,10.0,11.0,31,0.00,,,0.00,374,WeatherCatV1.23B16,2013-12-13 22:02:00,
2013-12-13 14:07:00,35.8,10.2,30.32,SSE,157,7.0,13.0,34,0.00,,,0.00,366,WeatherCatV1.23B16,2013-12-13 22:07:00,
2013-12-13 14:12:00,35.5,10.6,30.32,SE,144,5.0,12.0,35,0.00,,,0.00,357,WeatherCatV1.23B16,2013-12-13 22:12:00,
2013-12-13 14:17:00,35.0,12.0,30.33,East,92,1.0,12.0,38,0.00,,,0.00,350,WeatherCatV1.23B16,2013-12-13 22:17:00,
2013-12-13 14:22:00,34.9,12.5,30.33,SSE,164,8.0,12.0,39,0.00,,,0.00,338,WeatherCatV1.23B16,2013-12-13 22:22:00,
2013-12-13 14:27:00,34.9,14.2,30.33,SSE,153,8.0,10.0,42,0.00,,,0.00,225,WeatherCatV1.23B16,2013-12-13 22:27:00,
2013-12-13 14:32:00,34.6,13.4,30.33,SSE,151,6.0,13.0,41,0.00,,,0.00,21,WeatherCatV1.23B16,2013-12-13 22:32:00,
2013-12-13 14:37:00,34.3,14.2,30.33,ESE,112,5.0,9.0,43,0.00,,,0.00,21,WeatherCatV1.23B16,2013-12-13 22:37:00,
2013-12-13 14:42:00,34.0,13.9,30.33,ESE,119,7.0,10.0,43,0.00,,,0.00,21,WeatherCatV1.23B16,2013-12-13 22:42:00,
2013-12-13 14:47:00,33.7,13.6,30.35,ESE,118,7.0,13.0,43,0.00,,,0.00,21,WeatherCatV1.23B16,2013-12-13 22:47:00,
2013-12-13 14:52:00,33.4,13.3,30.35,ESE,112,7.0,8.0,43,0.00,,,0.00,21,WeatherCatV1.23B16,2013-12-13 22:52:00,
2013-12-13 14:57:00,33.1,12.5,30.35,SE,145,6.0,8.0,42,0.00,,,0.00,19,WeatherCatV1.23B16,2013-12-13 22:57:00,
2013-12-13 15:02:00,32.8,12.3,30.36,SSE,157,10.0,13.0,42,0.00,,,0.00,19,WeatherCatV1.23B16,2013-12-13 23:02:00,
2013-12-13 15:07:00,32.4,12.9,30.36,ESE,110,2.0,9.0,44,0.00,,,0.00,19,WeatherCatV1.23B16,2013-12-13 23:07:00,
2013-12-13 15:12:00,31.9,12.5,30.36,SE,125,7.0,9.0,44,0.00,,,0.00,19,WeatherCatV1.23B16,2013-12-13 23:12:00,
2013-12-13 15:17:00,31.8,12.4,30.38,ESE,123,6.0,9.0,44,0.00,,,0.00,19,WeatherCatV1.23B16,2013-12-13 23:17:00,
2013-12-13 15:22:00,31.2,12.4,30.38,East,99,8.0,10.0,45,0.00,,,0.00,35,WeatherCatV1.23B16,2013-12-13 23:22:00,
2013-12-13 15:27:00,31.2,12.9,30.38,SE,139,10.0,11.0,46,0.00,,,0.00,21,WeatherCatV1.23B16,2013-12-13 23:27:00,
2013-12-13 15:32:00,31.2,12.9,30.38,ESE,122,7.0,11.0,46,0.00,,,0.00,18,WeatherCatV1.23B16,2013-12-13 23:32:00,
2013-12-13 15:37:00,31.0,12.7,30.38,SE,128,7.0,11.0,46,0.00,,,0.00,18,WeatherCatV1.23B16,2013-12-13 23:37:00,
2013-12-13 15:42:00,30.9,13.6,30.38,ESE,106,8.0,12.0,48,0.00,,,0.00,18,WeatherCatV1.23B16,2013-12-13 23:42:00,
2013-12-13 15:47:00,30.9,13.6,30.38,SE,145,10.0,10.0,48,0.00,,,0.00,16,WeatherCatV1.23B16,2013-12-13 23:47:00,
2013-12-13 15:52:00,30.7,13.4,30.38,SE,137,4.0,9.0,48,0.00,,,0.00,16,WeatherCatV1.23B16,2013-12-13 23:52:00,
2013-12-13 15:57:00,30.6,13.3,30.38,SE,126,6.0,7.0,48,0.00,,,0.00,14,WeatherCatV1.23B16,2013-12-13 23:57:00,
2013-12-13 16:02:00,30.3,13.0,30.38,ESE,112,5.0,10.0,48,0.00,,,0.00,14,WeatherCatV1.23B16,2013-12-14 00:02:00,
2013-12-13 16:07:00,30.1,13.3,30.38,ESE,120,5.0,10.0,49,0.00,,,0.00,12,WeatherCatV1.23B16,2013-12-14 00:07:00,
2013-12-13 16:12:00,30.0,12.7,30.38,ESE,122,6.0,10.0,48,0.00,,,0.00,12,WeatherCatV1.23B16,2013-12-14 00:12:00,
2013-12-13 16:17:00,29.7,12.4,30.42,SE,137,6.0,12.0,48,0.00,,,0.00,11,WeatherCatV1.23B16,2013-12-14 00:17:00,
2013-12-13 16:22:00,29.4,12.2,30.42,SE,125,7.0,11.0,48,0.00,,,0.00,9,WeatherCatV1.23B16,2013-12-14 00:22:00,
2013-12-13 16:27:00,29.3,12.1,30.42,ESE,116,6.0,9.0,48,0.00,,,0.00,7,WeatherCatV1.23B16,2013-12-14 00:27:00,
2013-12-13 16:32:00,29.1,12.4,30.43,ESE,114,7.0,11.0,49,0.00,,,0.00,5,WeatherCatV1.23B16,2013-12-14 00:32:00,
2013-12-13 16:37:00,29.0,11.8,30.43,ESE,118,11.0,12.0,48,0.00,,,0.00,5,WeatherCatV1.23B16,2013-12-14 00:37:00,
2013-12-13 16:42:00,29.1,11.4,30.43,SSE,153,2.0,13.0,47,0.00,,,0.00,0,WeatherCatV1.23B16,2013-12-14 00:42:00,
2013-12-13 16:47:00,29.0,11.8,30.44,SE,126,7.0,11.0,48,0.00,,,0.00,0,WeatherCatV1.23B16,2013-12-14 00:47:00,
2013-12-13 16:52:00,28.8,11.6,30.44,SSE,167,9.0,13.0,48,0.00,,,0.00,0,WeatherCatV1.23B16,2013-12-14 00:52:00,
2013-12-13 16:57:00,28.7,11.5,30.44,ESE,108,6.0,10.0,48,0.00,,,0.00,0,WeatherCatV1.23B16,2013-12-14 00:57:00,
2013-12-13 17:02:00,28.5,10.9,30.44,SSE,147,11.0,15.0,47,0.00,,,0.00,0,WeatherCatV1.23B16,2013-12-14 01:02:00,
2013-12-13 17:07:00,28.5,11.3,30.44,ESE,118,8.0,10.0,48,0.00,,,0.00,0,WeatherCatV1.23B16,2013-12-14 01:07:00,
2013-12-13 17:12:00,28.2,11.1,30.44,SE,136,7.0,12.0,48,0.00,,,0.00,0,WeatherCatV1.23B16,2013-12-14 01:12:00,
2013-12-13 17:17:00,28.1,11.0,30.45,SE,124,9.0,12.0,48,0.00,,,0.00,0,WeatherCatV1.23B16,2013-12-14 01:17:00,
2013-12-13 17:20:00,28.1,11.0,30.45,SE,128,11.0,14.0,48,0.00,,,0.00,0,WeatherCatV1.23B16,2013-12-14 01:20:00,
2013-12-13 17:25:00,27.8,11.1,30.45,ESE,104,4.0,13.0,49,0.00,,,0.00,0,WeatherCatV1.23B16,2013-12-14 01:25:00,
2013-12-13 17:30:00,27.6,11.4,30.45,SE,142,12.0,12.0,50,0.00,,,0.00,0,WeatherCatV1.23B16,2013-12-14 01:30:00,
2013-12-13 17:35:00,27.5,11.3,30.45,SE,139,15.0,16.0,50,0.00,,,0.00,0,WeatherCatV1.23B16,2013-12-14 01:35:00,
2013-12-13 17:40:00,27.5,11.8,30.45,SE,140,9.0,19.0,51,0.00,,,0.00,0,WeatherCatV1.23B16,2013-12-14 01:40:00,
2013-12-13 17:45:00,27.5,12.2,30.45,SE,141,11.0,14.0,52,0.00,,,0.00,0,WeatherCatV1.23B16,2013-12-14 01:45:00,
2013-12-13 17:50:00,27.3,12.0,30.45,ESE,110,8.0,18.0,52,0.00,,,0.00,0,WeatherCatV1.23B16,2013-12-14 01:50:00,
2013-12-13 17:55:00,27.2,12.4,30.45,SE,137,11.0,14.0,53,0.00,,,0.00,0,WeatherCatV1.23B16,2013-12-14 01:55:00,
2013-12-13 18:00:00,27.0,12.6,30.45,SE,146,10.0,17.0,54,0.00,,,0.00,0,WeatherCatV1.23B16,2013-12-14 02:00:00,
2013-12-13 18:05:00,27.0,13.0,30.45,ESE,111,11.0,16.0,55,0.00,,,0.00,0,WeatherCatV1.23B16,2013-12-14 02:05:00,
2013-12-13 18:10:00,27.0,13.0,30.45,SE,139,12.0,16.0,55,0.00,,,0.00,0,WeatherCatV1.23B16,2013-12-14 02:10:00,
2013-12-13 18:15:00,27.0,13.0,30.45,ESE,115,11.0,16.0,55,0.00,,,0.00,0,WeatherCatV1.23B16,2013-12-14 02:15:00,
2013-12-13 18:20:00,27.0,13.4,30.45,SE,145,11.0,16.0,56,0.00,,,0.00,0,WeatherCatV1.23B16,2013-12-14 02:20:00,
2013-12-13 18:25:00,27.0,13.8,30.45,SE,126,10.0,18.0,57,0.00,,,0.00,0,WeatherCatV1.23B16,2013-12-14 02:25:00,
2013-12-13 18:30:00,27.0,14.2,30.46,SSE,157,2.0,14.0,58,0.00,,,0.00,0,WeatherCatV1.23B16,2013-12-14 02:30:00,
2013-12-13 18:35:00,26.9,14.5,30.46,East,99,6.0,12.0,59,0.00,,,0.00,0,WeatherCatV1.23B16,2013-12-14 02:35:00,
2013-12-13 18:40:00,26.7,14.3,30.46,SE,145,9.0,15.0,59,0.00,,,0.00,0,WeatherCatV1.23B16,2013-12-14 02:40:00,
2013-12-13 18:45:00,26.7,14.3,30.47,ESE,106,15.0,17.0,59,0.00,,,0.00,0,WeatherCatV1.23B16,2013-12-14 02:45:00,
2013-12-13 18:50:00,26.7,14.3,30.47,SE,125,10.0,11.0,59,0.00,,,0.00,0,WeatherCatV1.23B16,2013-12-14 02:50:00,
2013-12-13 18:55:00,26.7,14.7,30.47,ESE,106,13.0,14.0,60,0.00,,,0.00,0,WeatherCatV1.23B16,2013-12-14 02:55:00,
2013-12-13 19:00:00,26.7,14.3,30.47,ESE,107,11.0,17.0,59,0.00,,,0.00,0,WeatherCatV1.23B16,2013-12-14 03:00:00,
2013-12-13 19:05:00,26.7,14.7,30.47,ESE,122,13.0,15.0,60,0.00,,,0.00,0,WeatherCatV1.23B16,2013-12-14 03:05:00,
2013-12-13 19:10:00,26.6,15.0,30.47,ESE,116,10.0,14.0,61,0.00,,,0.00,0,WeatherCatV1.23B16,2013-12-14 03:10:00,
2013-12-13 19:15:00,26.4,15.2,30.48,SE,145,11.0,13.0,62,0.00,,,0.00,0,WeatherCatV1.23B16,2013-12-14 03:15:00,
2013-12-13 19:20:00,26.3,15.1,30.48,ESE,107,5.0,15.0,62,0.00,,,0.00,0,WeatherCatV1.23B16,2013-12-14 03:20:00,
2013-12-13 19:25:00,26.1,14.9,30.48,ESE,122,10.0,15.0,62,0.00,,,0.00,0,WeatherCatV1.23B16,2013-12-14 03:25:00,
2013-12-13 19:30:00,25.8,15.0,30.48,ESE,104,7.0,17.0,63,0.00,,,0.00,0,WeatherCatV1.23B16,2013-12-14 03:30:00,
2013-12-13 19:35:00,25.7,14.9,30.48,ESE,118,10.0,16.0,63,0.00,,,0.00,0,WeatherCatV1.23B16,2013-12-14 03:35:00,
2013-12-13 19:40:00,25.6,14.8,30.48,ESE,106,13.0,17.0,63,0.00,,,0.00,0,WeatherCatV1.23B16,2013-12-14 03:40:00,
2013-12-13 19:45:00,25.4,14.6,30.49,ESE,104,7.0,16.0,63,0.00,,,0.00,0,WeatherCatV1.23B16,2013-12-14 03:45:00,
2013-12-13 19:50:00,25.3,14.5,30.49,SE,131,12.0,14.0,63,0.00,,,0.00,0,WeatherCatV1.23B16,2013-12-14 03:50:00,
2013-12-13 19:55:00,24.8,14.4,30.49,East,99,12.0,15.0,64,0.00,,,0.00,0,WeatherCatV1.23B16,2013-12-14 03:55:00,
2013-12-13 20:00:00,24.5,14.4,30.49,SE,124,11.0,18.0,65,0.00,,,0.00,0,WeatherCatV1.23B16,2013-12-14 04:00:00,
2013-12-13 20:05:00,24.4,14.4,30.49,SE,133,13.0,14.0,65,0.00,,,0.00,0,WeatherCatV1.23B16,2013-12-14 04:05:00,
2013-12-13 20:10:00,24.1,14.1,30.49,East,98,7.0,13.0,65,0.00,,,0.00,0,WeatherCatV1.23B16,2013-12-14 04:10:00,
2013-12-13 20:15:00,23.9,13.9,30.48,ESE,112,4.0,15.0,65,0.00,,,0.00,0,WeatherCatV1.23B16,2013-12-14 04:15:00,
2013-12-13 20:20:00,23.8,14.1,30.48,ESE,113,6.0,13.0,66,0.00,,,0.00,0,WeatherCatV1.23B16,2013-12-14 04:20:00,
2013-12-13 20:25:00,23.8,14.1,30.48,ESE,122,12.0,15.0,66,0.00,,,0.00,0,WeatherCatV1.23B16,2013-12-14 04:25:00,
2013-12-13 20:30:00,23.8,14.1,30.48,ESE,117,12.0,15.0,66,0.00,,,0.00,0,WeatherCatV1.23B16,2013-12-14 04:30:00,
2013-12-13 20:35:00,24.1,14.4,30.48,SE,128,12.0,15.0,66,0.00,,,0.00,0,WeatherCatV1.23B16,2013-12-14 04:35:00,
2013-12-13 20:40:00,23.9,13.9,30.48,SE,130,6.0,14.0,65,0.00,,,0.00,0,WeatherCatV1.23B16,2013-12-14 04:40:00,
2013-12-13 20:45:00,23.6,13.9,30.48,ESE,108,9.0,16.0,66,0.00,,,0.00,0,WeatherCatV1.23B16,2013-12-14 04:45:00,
2013-12-13 20:50:00,23.5,13.8,30.48,ESE,113,6.0,13.0,66,0.00,,,0.00,0,WeatherCatV1.23B16,2013-12-14 04:50:00,
2013-12-13 20:55:00,23.3,14.0,30.48,SSE,155,11.0,16.0,67,0.00,,,0.00,0,WeatherCatV1.23B16,2013-12-14 04:55:00,
2013-12-13 21:00:00,23.3,13.6,30.49,ESE,107,9.0,18.0,66,0.00,,,0.00,0,WeatherCatV1.23B16,2013-12-14 05:00:00,
2013-12-13 21:01:00,23.3,13.6,30.49,SE,133,13.0,15.0,66,0.00,,,0.00,0,WeatherCatV1.23B16,2013-12-14 05:01:00,
2013-12-13 21:02:00,23.3,13.6,30.49,ESE,114,6.0,14.0,66,0.00,,,0.00,0,WeatherCatV1.23B16,2013-12-14 05:02:00,
2013-12-13 21:03:00,23.3,13.6,30.49,SSE,159,12.0,20.0,66,0.00,,,0.00,0,WeatherCatV1.23B16,2013-12-14 05:03:00,
2013-12-13 21:05:00,23.3,13.6,30.49,ESE,122,10.0,16.0,66,0.00,,,0.00,0,WeatherCatV1.23B16,2013-12-14 05:05:00,
2013-12-13 21:09:00,23.3,13.6,30.49,SE,124,11.0,17.0,66,0.00,,,0.00,0,WeatherCatV1.23B16,2013-12-14 05:09:00,
2013-12-13 21:14:00,23.3,13.6,30.45,SE,141,9.0,17.0,66,0.00,,,0.00,0,WeatherCatV1.23B16,2013-12-14 05:14:00,
2013-12-13 21:17:00,23.5,13.5,30.45,East,95,14.0,17.0,65,0.00,,,0.00,0,WeatherCatV1.23B16,2013-12-14 05:17:00,
2013-12-13 21:22:00,23.6,13.6,30.45,SE,132,14.0,17.0,65,0.00,,,0.00,0,WeatherCatV1.23B16,2013-12-14 05:22:00,
2013-12-13 21:27:00,23.6,13.6,30.45,East,94,9.0,14.0,65,0.00,,,0.00,0,WeatherCatV1.23B16,2013-12-14 05:27:00,
2013-12-13 21:32:00,23.9,13.2,30.44,SE,127,11.0,16.0,63,0.00,,,0.00,0,WeatherCatV1.23B16,2013-12-14 05:32:00,
2013-12-13 21:37:00,24.2,13.1,30.44,East,95,11.0,14.0,62,0.00,,,0.00,0,WeatherCatV1.23B16,2013-12-14 05:37:00,
2013-12-13 21:42:00,24.2,13.1,30.44,ESE,112,10.0,16.0,62,0.00,,,0.00,0,WeatherCatV1.23B16,2013-12-14 05:42:00,
2013-12-13 21:47:00,24.2,13.4,30.44,East,95,8.0,13.0,63,0.00,,,0.00,0,WeatherCatV1.23B16,2013-12-14 05:47:00,
2013-12-13 21:52:00,24.1,13.4,30.44,East,97,5.0,14.0,63,0.00,,,0.00,0,WeatherCatV1.23B16,2013-12-14 05:52:00,
2013-12-13 21:57:00,24.1,13.4,30.44,ESE,118,7.0,13.0,63,0.00,,,0.00,0,WeatherCatV1.23B16,2013-12-14 05:57:00,
2013-12-13 22:02:00,24.2,13.4,30.44,East,90,9.0,12.0,63,0.00,,,0.00,0,WeatherCatV1.23B16,2013-12-14 06:02:00,
2013-12-13 22:07:00,24.2,13.4,30.44,SE,142,6.0,10.0,63,0.00,,,0.00,0,WeatherCatV1.23B16,2013-12-14 06:07:00,
2013-12-13 22:12:00,24.2,13.4,30.44,ESE,111,4.0,11.0,63,0.00,,,0.00,0,WeatherCatV1.23B16,2013-12-14 06:12:00,
2013-12-13 22:17:00,24.2,13.4,30.42,ESE,107,14.0,14.0,63,0.00,,,0.00,0,WeatherCatV1.23B16,2013-12-14 06:17:00,
2013-12-13 22:22:00,24.4,13.6,30.42,ESE,112,9.0,18.0,63,0.00,,,0.00,0,WeatherCatV1.23B16,2013-12-14 06:22:00,
2013-12-13 22:27:00,24.4,13.6,30.42,ESE,114,6.0,12.0,63,0.00,,,0.00,0,WeatherCatV1.23B16,2013-12-14 06:27:00,
2013-12-13 22:32:00,24.4,14.0,30.43,ESE,103,13.0,18.0,64,0.00,,,0.00,0,WeatherCatV1.23B16,2013-12-14 06:32:00,
2013-12-13 22:37:00,24.8,13.7,30.43,SE,124,6.0,13.0,62,0.00,,,0.00,0,WeatherCatV1.23B16,2013-12-14 06:37:00,
2013-12-13 22:42:00,25.0,14.2,30.43,ESE,109,9.0,15.0,63,0.00,,,0.00,0,WeatherCatV1.23B16,2013-12-14 06:42:00,
2013-12-13 22:47:00,25.4,14.2,30.43,SE,134,7.0,13.0,62,0.00,,,0.00,0,WeatherCatV1.23B16,2013-12-14 06:47:00,
2013-12-13 22:52:00,25.6,14.4,30.43,East,99,5.0,12.0,62,0.00,,,0.00,0,WeatherCatV1.23B16,2013-12-14 06:52:00,
2013-12-13 22:57:00,25.4,14.2,30.43,ENE,68,12.0,14.0,62,0.00,,,0.00,0,WeatherCatV1.23B16,2013-12-14 06:57:00,
2013-12-13 23:02:00,25.3,13.8,30.43,SE,128,6.0,11.0,61,0.00,,,0.00,0,WeatherCatV1.23B16,2013-12-14 07:02:00,
2013-12-13 23:07:00,24.8,13.7,30.43,ESE,110,4.0,10.0,62,0.00,,,0.00,0,WeatherCatV1.23B16,2013-12-14 07:07:00,
2013-12-13 23:12:00,24.4,13.6,30.43,ESE,102,4.0,7.0,63,0.00,,,0.00,0,WeatherCatV1.23B16,2013-12-14 07:12:00,
2013-12-13 23:17:00,24.1,13.7,30.45,ESE,106,5.0,10.0,64,0.00,,,0.00,0,WeatherCatV1.23B16,2013-12-14 07:17:00,
2013-12-13 23:22:00,23.8,13.4,30.45,ESE,104,6.0,8.0,64,0.00,,,0.00,0,WeatherCatV1.23B16,2013-12-14 07:22:00,
2013-12-13 23:27:00,24.1,13.7,30.45,East,100,4.0,11.0,64,0.00,,,0.00,0,WeatherCatV1.23B16,2013-12-14 07:27:00,
2013-12-13 23:32:00,24.2,13.8,30.46,SE,124,5.0,7.0,64,0.00,,,0.00,0,WeatherCatV1.23B16,2013-12-14 07:32:00,
2013-12-13 23:37:00,24.4,13.6,30.46,SE,145,11.0,11.0,63,0.00,,,0.00,0,WeatherCatV1.23B16,2013-12-14 07:37:00,
2013-12-13 23:42:00,24.4,13.6,30.46,East,91,6.0,8.0,63,0.00,,,0.00,0,WeatherCatV1.23B16,2013-12-14 07:42:00,
2013-12-13 23:47:00,24.4,14.0,30.46,ESE,111,7.0,11.0,64,0.00,,,0.00,0,WeatherCatV1.23B16,2013-12-14 07:47:00,
2013-12-13 23:52:00,24.7,14.3,30.46,East,89,6.0,14.0,64,0.00,,,0.00,0,WeatherCatV1.23B16,2013-12-14 07:52:00,
2013-12-13 23:57:00,24.7,14.3,30.46,East,89,4.0,11.0,64,0.00,,,0.00,0,WeatherCatV1.23B16,2013-12-14 07:57:00,